createdAt,value
2022-11-14T00:00:52.651Z,102178.31
2022-11-14T00:03:39.377Z,102168.41
2022-11-14T00:06:25.678Z,102162.88
2022-11-14T00:09:11.988Z,102174.00
2022-11-14T00:11:58.374Z,102165.03
2022-11-14T00:14:45.915Z,102169.53
2022-11-14T00:17:32.709Z,102160.72
2022-11-14T00:20:19.563Z,102164.41
2022-11-14T00:23:06.156Z,102162.44
2022-11-14T00:25:53.175Z,102149.25
2022-11-14T00:28:39.510Z,102154.25
2022-11-14T00:31:27.294Z,102149.59
2022-11-14T00:34:13.846Z,102148.19
2022-11-14T00:37:00.810Z,102138.06
2022-11-14T00:39:47.088Z,102142.72
2022-11-14T00:42:34.632Z,102134.28
2022-11-14T00:45:21.466Z,102136.38
2022-11-14T00:48:09.514Z,102136.06
2022-11-14T00:50:55.768Z,102142.09
2022-11-14T00:53:42.691Z,102130.31
2022-11-14T00:56:29.199Z,102128.00
2022-11-14T00:59:15.878Z,102120.09
2022-11-14T01:02:02.805Z,102113.91
2022-11-14T01:04:50.849Z,102119.66
2022-11-14T01:07:37.460Z,102108.00
2022-11-14T01:10:24.057Z,102095.66
2022-11-14T01:13:10.793Z,102099.88
2022-11-14T01:16:01.278Z,102105.81
2022-11-14T01:18:47.806Z,102097.31
2022-11-14T01:21:35.724Z,102090.75
2022-11-14T01:24:22.191Z,102086.03
2022-11-14T01:27:08.610Z,102088.50
2022-11-14T01:29:55.027Z,102085.91
2022-11-14T01:32:41.511Z,102075.31
2022-11-14T01:35:27.948Z,102083.31
2022-11-14T01:38:16.531Z,102079.84
2022-11-14T01:41:03.487Z,102065.31
2022-11-14T01:43:50.616Z,102063.91
2022-11-14T01:46:39.842Z,102063.63
2022-11-14T01:49:32.006Z,102070.13
2022-11-14T01:52:22.001Z,102052.28
2022-11-14T01:55:11.173Z,102055.56
2022-11-14T01:57:59.066Z,102058.09
2022-11-14T02:00:45.921Z,102059.88
2022-11-14T02:03:32.994Z,102058.97
2022-11-14T02:06:23.669Z,102052.38
2022-11-14T02:09:10.095Z,102044.59
2022-11-14T02:12:02.034Z,102040.69
2022-11-14T02:14:53.381Z,102037.09
2022-11-14T02:17:40.107Z,102029.22
2022-11-14T02:20:29.523Z,102028.75
2022-11-14T02:23:17.808Z,102030.09
2022-11-14T02:26:04.533Z,102023.91
2022-11-14T02:28:51.280Z,102028.38
2022-11-14T02:31:37.658Z,102018.03
2022-11-14T02:34:24.179Z,102003.16
2022-11-14T02:37:12.235Z,102010.63
2022-11-14T02:39:58.480Z,101999.53
2022-11-14T02:42:44.883Z,102016.94
2022-11-14T02:45:31.384Z,102005.94
2022-11-14T02:48:17.815Z,101996.25
2022-11-14T02:51:04.030Z,101995.63
2022-11-14T02:53:51.866Z,101993.09
2022-11-14T02:56:38.503Z,101986.66
2022-11-14T02:59:24.659Z,101985.97
2022-11-14T03:02:10.879Z,101988.31
2022-11-14T03:04:57.691Z,101982.50
2022-11-14T03:07:44.250Z,101981.50
2022-11-14T03:10:31.988Z,101972.91
2022-11-14T03:13:18.446Z,101968.72
2022-11-14T03:16:09.516Z,101974.75
2022-11-14T03:18:55.982Z,101971.50
2022-11-14T03:21:42.578Z,101965.41
2022-11-14T03:24:28.955Z,101968.16
2022-11-14T03:27:16.720Z,101973.44
2022-11-14T03:30:03.403Z,101969.13
2022-11-14T03:32:49.884Z,101959.00
2022-11-14T03:35:36.157Z,101964.09
2022-11-14T03:38:23.116Z,101954.28
2022-11-14T03:41:09.566Z,101949.41
2022-11-14T03:43:57.450Z,101949.31
2022-11-14T03:46:43.965Z,101935.84
2022-11-14T03:49:30.102Z,101929.97
2022-11-14T03:52:16.592Z,101937.84
2022-11-14T03:55:02.922Z,101933.19
2022-11-14T03:57:49.216Z,101938.34
2022-11-14T04:00:37.194Z,101933.00
2022-11-14T04:03:23.703Z,101933.22
2022-11-14T04:06:10.381Z,101931.41
2022-11-14T04:08:57.408Z,101940.22
2022-11-14T04:11:43.928Z,101923.53
2022-11-14T04:14:30.224Z,101925.56
2022-11-14T04:17:17.948Z,101924.53
2022-11-14T04:20:04.610Z,101920.56
2022-11-14T04:22:51.140Z,101918.41
2022-11-14T04:25:37.358Z,101918.69
2022-11-14T04:28:23.682Z,101918.34
2022-11-14T04:31:10.187Z,101921.47
2022-11-14T04:33:57.985Z,101916.97
2022-11-14T04:36:44.566Z,101909.34
2022-11-14T04:39:30.806Z,101911.81
2022-11-14T04:42:17.087Z,101912.22
2022-11-14T04:45:03.390Z,101906.31
2022-11-14T04:47:50.208Z,101903.47
2022-11-14T04:50:38.087Z,101900.63
2022-11-14T04:53:24.245Z,101904.00
2022-11-14T04:56:10.386Z,101910.38
2022-11-14T04:58:56.744Z,101892.06
2022-11-14T05:01:43.374Z,101886.56
2022-11-14T05:04:29.555Z,101889.69
2022-11-14T05:07:17.390Z,101885.34
2022-11-14T05:10:03.802Z,101884.38
2022-11-14T05:12:50.060Z,101892.91
2022-11-14T05:15:37.136Z,101892.38
2022-11-14T05:18:23.628Z,101894.63
2022-11-14T05:21:13.628Z,101905.19
2022-11-14T05:24:01.376Z,101893.59
2022-11-14T05:26:47.746Z,101878.09
2022-11-14T05:29:33.863Z,101878.34
2022-11-14T05:32:20.188Z,101881.25
2022-11-14T05:35:08.143Z,101881.00
2022-11-14T05:37:58.912Z,101870.13
2022-11-14T05:40:47.795Z,101881.88
2022-11-14T05:43:34.077Z,101876.66
2022-11-14T05:46:20.496Z,101864.84
2022-11-14T05:49:06.647Z,101871.41
2022-11-14T05:51:53.093Z,101875.38
2022-11-14T05:54:39.612Z,101876.06
2022-11-14T05:57:27.541Z,101863.38
2022-11-14T06:00:14.839Z,101871.84
2022-11-14T06:03:01.116Z,101859.94
2022-11-14T06:05:47.416Z,101862.72
2022-11-14T06:08:34.144Z,101861.94
2022-11-14T06:11:21.821Z,101866.03
2022-11-14T06:14:10.995Z,101866.50
2022-11-14T06:16:57.745Z,101863.63
2022-11-14T06:19:43.960Z,101860.59
2022-11-14T06:22:30.368Z,101863.38
2022-11-14T06:25:16.721Z,101864.59
2022-11-14T06:28:03.041Z,101869.25
2022-11-14T06:30:50.771Z,101865.97
2022-11-14T06:33:38.277Z,101863.59
2022-11-14T06:36:24.931Z,101857.19
2022-11-14T06:39:11.448Z,101864.47
2022-11-14T06:41:57.910Z,101852.94
2022-11-14T06:44:44.486Z,101860.25
2022-11-14T06:47:32.277Z,101860.56
2022-11-14T06:50:19.093Z,101858.66
2022-11-14T06:53:05.721Z,101859.44
2022-11-14T06:55:55.833Z,101857.50
2022-11-14T06:58:44.140Z,101857.66
2022-11-14T07:01:30.919Z,101858.75
2022-11-14T07:04:19.150Z,101862.91
2022-11-14T07:07:05.485Z,101870.13
2022-11-14T07:09:54.333Z,101858.28
2022-11-14T07:12:40.465Z,101864.31
2022-11-14T07:15:26.834Z,101864.16
2022-11-14T07:18:13.221Z,101873.41
2022-11-14T07:21:03.082Z,101876.44
2022-11-14T07:23:49.395Z,101879.38
2022-11-14T07:26:36.050Z,101878.38
2022-11-14T07:29:22.295Z,101864.78
2022-11-14T07:32:08.767Z,101869.00
2022-11-14T07:35:00.796Z,101861.94
2022-11-14T07:37:50.171Z,101866.22
2022-11-14T07:40:36.972Z,101848.94
2022-11-14T07:43:23.944Z,101849.13
2022-11-14T07:46:13.999Z,101852.69
2022-11-14T07:49:00.495Z,101844.88
2022-11-14T07:51:46.908Z,101844.16
2022-11-14T07:54:34.943Z,101840.69
2022-11-14T07:57:21.368Z,101836.59
2022-11-14T08:00:08.961Z,101847.69
2022-11-14T08:02:55.188Z,101840.91
2022-11-14T08:05:41.569Z,101841.28
2022-11-14T08:08:28.560Z,101835.69
2022-11-14T08:11:36.766Z,101837.78
2022-11-14T08:14:23.302Z,101836.06
2022-11-14T08:17:09.697Z,101831.88
2022-11-14T08:19:56.236Z,101843.09
2022-11-14T08:22:42.526Z,101836.13
2022-11-14T08:25:28.820Z,101840.09
2022-11-14T08:28:16.530Z,101842.63
2022-11-14T08:31:04.431Z,101827.81
2022-11-14T08:33:52.837Z,101834.75
2022-11-14T08:36:39.479Z,101831.59
2022-11-14T08:39:25.803Z,101820.38
2022-11-14T08:42:12.127Z,101827.47
2022-11-14T08:44:59.839Z,101819.75
2022-11-14T08:47:52.477Z,101812.34
2022-11-14T08:50:38.788Z,101814.50
2022-11-14T08:53:25.040Z,101810.25
2022-11-14T08:56:11.937Z,101810.72
2022-11-14T08:58:58.442Z,101808.25
2022-11-14T09:01:46.608Z,101813.06
2022-11-14T09:04:33.526Z,101814.19
2022-11-14T09:07:20.344Z,101815.91
2022-11-14T09:10:08.255Z,101809.69
2022-11-14T09:12:57.038Z,101809.00
2022-11-14T09:15:43.839Z,101808.56
2022-11-14T09:18:32.493Z,101789.56
2022-11-14T09:21:19.103Z,101784.13
2022-11-14T09:24:05.841Z,101776.84
2022-11-14T09:26:56.707Z,101776.19
2022-11-14T09:29:43.967Z,101774.47
2022-11-14T09:32:30.475Z,101785.31
2022-11-14T09:35:18.552Z,101770.09
2022-11-14T09:38:07.124Z,101776.09
2022-11-14T09:41:03.460Z,101790.34
2022-11-14T09:44:20.486Z,101775.56
2022-11-14T09:47:15.546Z,101785.47
2022-11-14T09:50:11.784Z,101773.47
2022-11-14T09:53:04.510Z,101776.00
2022-11-14T09:55:50.743Z,101764.44
2022-11-14T09:58:36.986Z,101756.16
2022-11-14T10:01:33.725Z,101747.59
2022-11-14T10:04:29.555Z,101762.81
2022-11-14T10:07:28.205Z,101742.81
2022-11-14T10:10:27.446Z,101737.50
2022-11-14T10:13:30.158Z,101745.59
2022-11-14T10:16:24.549Z,101733.72
2022-11-14T10:19:20.433Z,101722.44
2022-11-14T10:22:19.564Z,101729.78
2022-11-14T10:25:22.237Z,101733.16
2022-11-14T10:28:34.947Z,101742.09
2022-11-14T10:31:32.445Z,101731.84
2022-11-14T10:34:28.208Z,101726.13
2022-11-14T10:37:21.333Z,101721.28
2022-11-14T10:40:19.760Z,101703.66
2022-11-14T10:43:19.222Z,101701.13
2022-11-14T10:46:10.483Z,101695.06
2022-11-14T10:49:00.224Z,101704.44
2022-11-14T10:51:52.273Z,101687.38
2022-11-14T10:54:45.362Z,101688.03
2022-11-14T10:57:33.516Z,101681.41
2022-11-14T11:00:23.026Z,101670.91
2022-11-14T11:03:09.701Z,101668.66
2022-11-14T11:05:57.689Z,101667.94
2022-11-14T11:09:02.014Z,101673.59
2022-11-14T11:11:55.808Z,101680.25
2022-11-14T11:14:44.049Z,101669.16
2022-11-14T11:17:37.094Z,101664.34
2022-11-14T11:20:29.029Z,101660.19
2022-11-14T11:23:21.368Z,101654.47
2022-11-14T11:26:16.944Z,101648.84
2022-11-14T11:29:15.502Z,101651.47
2022-11-14T11:32:03.139Z,101640.16
2022-11-14T11:34:49.591Z,101642.63
2022-11-14T11:37:40.350Z,101617.94
2022-11-14T11:40:30.044Z,101625.00
2022-11-14T11:43:41.856Z,101616.22
2022-11-14T11:46:36.237Z,101609.19
2022-11-14T11:49:33.057Z,101615.69
2022-11-14T11:52:29.487Z,101617.38
2022-11-14T11:55:19.389Z,101614.16
2022-11-14T11:58:12.768Z,101611.44
2022-11-14T12:00:59.406Z,101597.38
2022-11-14T12:03:48.643Z,101589.22
2022-11-14T12:06:43.807Z,101578.47
2022-11-14T12:10:03.492Z,101583.06
2022-11-14T12:12:57.527Z,101599.00
2022-11-14T12:15:56.561Z,101608.06
2022-11-14T12:19:01.192Z,101598.78
2022-11-14T12:22:13.023Z,101604.63
2022-11-14T12:25:19.627Z,101609.59
2022-11-14T12:28:19.127Z,101604.19
2022-11-14T12:31:12.829Z,101609.69
2022-11-14T12:34:03.487Z,101606.69
2022-11-14T12:36:50.267Z,101605.06
2022-11-14T12:39:38.553Z,101595.22
2022-11-14T12:42:25.960Z,101599.69
2022-11-14T12:45:46.101Z,101595.97
2022-11-14T12:48:35.347Z,101596.38
2022-11-14T12:51:50.186Z,101598.34
2022-11-14T12:54:49.169Z,101593.50
2022-11-14T12:57:50.427Z,101590.94
2022-11-14T13:00:42.339Z,101588.69
2022-11-14T13:03:42.775Z,101590.44
2022-11-14T13:06:40.682Z,101593.75
2022-11-14T13:09:54.426Z,101590.38
2022-11-14T13:13:00.920Z,101595.19
2022-11-14T13:16:10.997Z,101587.41
2022-11-14T13:19:21.068Z,101588.69
2022-11-14T13:22:42.272Z,101580.34
2022-11-14T13:25:29.009Z,101577.53
2022-11-14T13:28:49.941Z,101571.72
2022-11-14T13:31:51.679Z,101567.91
2022-11-14T13:34:54.227Z,101569.59
2022-11-14T13:37:56.018Z,101567.47
2022-11-14T13:40:51.409Z,101568.41
2022-11-14T13:43:56.841Z,101553.09
2022-11-14T13:46:59.091Z,101551.72
2022-11-14T13:50:05.103Z,101555.75
2022-11-14T13:52:52.380Z,101548.81
2022-11-14T13:55:52.950Z,101546.31
2022-11-14T13:58:57.320Z,101551.63
2022-11-14T14:02:02.439Z,101543.38
2022-11-14T14:04:59.501Z,101542.06
2022-11-14T14:07:59.418Z,101543.94
2022-11-14T14:11:00.500Z,101551.44
2022-11-14T14:13:56.735Z,101543.72
2022-11-14T14:16:50.989Z,101537.50
2022-11-14T14:19:49.647Z,101540.25
2022-11-14T14:22:43.842Z,101533.38
2022-11-14T14:25:41.881Z,101532.91
2022-11-14T14:28:40.157Z,101532.03
2022-11-14T14:31:34.004Z,101523.38
2022-11-14T14:34:28.147Z,101523.31
2022-11-14T14:37:19.676Z,101524.22
2022-11-14T14:40:11.069Z,101516.31
2022-11-14T14:42:58.257Z,101520.06
2022-11-14T14:45:48.943Z,101519.75
2022-11-14T14:48:39.964Z,101513.34
2022-11-14T14:51:36.093Z,101505.69
2022-11-14T14:54:25.340Z,101509.00
2022-11-14T14:57:22.415Z,101504.94
2022-11-14T15:00:22.462Z,101505.41
2022-11-14T15:03:12.039Z,101506.59
2022-11-14T15:06:00.330Z,101508.84
2022-11-14T15:08:48.423Z,101495.84
2022-11-14T15:11:35.674Z,101501.34
2022-11-14T15:14:24.967Z,101505.69
2022-11-14T15:17:12.981Z,101507.72
2022-11-14T15:19:59.365Z,101507.81
2022-11-14T15:23:03.773Z,101509.66
2022-11-14T15:26:03.001Z,101501.88
2022-11-14T15:28:49.735Z,101492.97
2022-11-14T15:31:37.569Z,101499.03
2022-11-14T15:34:27.240Z,101492.09
2022-11-14T15:37:22.959Z,101490.44
2022-11-14T15:40:20.885Z,101498.38
2022-11-14T15:43:49.444Z,101492.63
2022-11-14T15:46:44.293Z,101490.56
2022-11-14T15:49:31.081Z,101491.28
2022-11-14T15:52:22.843Z,101486.84
2022-11-14T15:55:15.149Z,101487.47
2022-11-14T15:58:26.496Z,101480.75
2022-11-14T16:01:17.273Z,101485.81
2022-11-14T16:04:04.113Z,101472.03
2022-11-14T16:06:50.404Z,101477.06
2022-11-14T16:09:37.302Z,101484.03
2022-11-14T16:12:23.903Z,101480.75
2022-11-14T16:15:10.999Z,101474.84
2022-11-14T16:17:58.930Z,101489.69
2022-11-14T16:20:45.488Z,101485.78
2022-11-14T16:23:32.065Z,101484.00
2022-11-14T16:26:18.997Z,101488.84
2022-11-14T16:29:05.680Z,101494.91
2022-11-14T16:31:52.649Z,101492.59
2022-11-14T16:34:40.572Z,101496.63
2022-11-14T16:37:27.166Z,101497.66
2022-11-14T16:40:16.629Z,101502.00
2022-11-14T16:43:03.428Z,101501.69
2022-11-14T16:45:50.129Z,101499.13
2022-11-14T16:48:36.699Z,101496.44
2022-11-14T16:51:54.221Z,101493.16
2022-11-14T16:54:33.115Z,101487.25
2022-11-14T16:57:19.269Z,101492.50
2022-11-14T17:00:06.282Z,101481.78
2022-11-14T17:02:52.855Z,101484.34
2022-11-14T17:05:44.151Z,101478.91
2022-11-14T17:08:31.927Z,101483.91
2022-11-14T17:11:18.374Z,101489.91
2022-11-14T17:14:04.767Z,101485.00
2022-11-14T17:16:51.073Z,101485.63
2022-11-14T17:19:38.977Z,101485.97
2022-11-14T17:22:25.759Z,101483.81
2022-11-14T17:25:13.852Z,101490.72
2022-11-14T17:28:00.382Z,101491.69
2022-11-14T17:30:47.115Z,101492.03
2022-11-14T17:33:34.036Z,101488.16
2022-11-14T17:36:21.104Z,101486.00
2022-11-14T17:39:07.466Z,101481.75
2022-11-14T17:41:55.059Z,101483.56
2022-11-14T17:44:41.238Z,101475.84
2022-11-14T17:47:28.204Z,101478.88
2022-11-14T17:50:14.729Z,101480.31
2022-11-14T17:53:00.993Z,101470.16
2022-11-14T17:55:47.603Z,101467.75
2022-11-14T17:58:35.937Z,101475.06
2022-11-14T18:01:24.254Z,101465.41
2022-11-14T18:04:11.828Z,101466.13
2022-11-14T18:06:58.279Z,101461.09
2022-11-14T18:09:44.962Z,101467.31
2022-11-14T18:12:31.367Z,101467.69
2022-11-14T18:15:22.643Z,101466.19
2022-11-14T18:18:11.852Z,101464.53
2022-11-14T18:20:58.215Z,101473.63
2022-11-14T18:23:44.521Z,101466.03
2022-11-14T18:26:32.535Z,101461.28
2022-11-14T18:29:18.879Z,101464.34
2022-11-14T18:32:07.065Z,101447.94
2022-11-14T18:34:53.241Z,101452.63
2022-11-14T18:37:39.639Z,101436.38
2022-11-14T18:40:25.949Z,101430.91
2022-11-14T18:43:12.331Z,101423.44
2022-11-14T18:46:05.807Z,101422.06
2022-11-14T18:48:57.458Z,101425.34
2022-11-14T18:51:44.142Z,101420.63
2022-11-14T18:54:30.563Z,101427.22
2022-11-14T18:57:16.789Z,101426.59
2022-11-14T19:00:03.840Z,101422.66
2022-11-14T19:02:51.297Z,101428.72
2022-11-14T19:05:39.204Z,101422.13
2022-11-14T19:08:25.605Z,101420.03
2022-11-14T19:11:34.709Z,101417.22
2022-11-14T19:14:21.796Z,101420.94
2022-11-14T19:17:08.227Z,101424.81
2022-11-14T19:19:54.482Z,101422.38
2022-11-14T19:22:42.168Z,101414.88
2022-11-14T19:25:29.641Z,101418.19
2022-11-14T19:28:18.703Z,101418.13
2022-11-14T19:31:06.455Z,101411.56
2022-11-14T19:33:52.858Z,101414.31
2022-11-14T19:36:58.818Z,101407.72
2022-11-14T19:39:47.218Z,101416.66
2022-11-14T19:42:33.760Z,101407.47
2022-11-14T19:45:20.354Z,101401.44
2022-11-14T19:48:06.955Z,101398.75
2022-11-14T19:51:00.389Z,101387.25
2022-11-14T19:53:47.710Z,101383.88
2022-11-14T19:56:35.463Z,101391.13
2022-11-14T19:59:24.581Z,101388.19
2022-11-14T20:02:14.038Z,101380.84
2022-11-14T20:05:00.547Z,101383.81
2022-11-14T20:07:47.294Z,101383.28
2022-11-14T20:10:47.607Z,101388.78
2022-11-14T20:13:37.866Z,101384.44
2022-11-14T20:16:26.100Z,101387.03
2022-11-14T20:19:13.678Z,101385.56
2022-11-14T20:22:00.114Z,101377.72
2022-11-14T20:24:46.513Z,101389.13
2022-11-14T20:27:33.331Z,101390.56
2022-11-14T20:30:21.349Z,101391.78
2022-11-14T20:33:08.199Z,101394.34
2022-11-14T20:35:54.776Z,101391.66
2022-11-14T20:38:41.953Z,101389.66
2022-11-14T20:41:28.724Z,101391.13
2022-11-14T20:44:15.676Z,101392.25
2022-11-14T20:47:08.376Z,101385.91
2022-11-14T20:49:57.636Z,101385.75
2022-11-14T20:52:46.316Z,101381.72
2022-11-14T20:55:32.657Z,101379.19
2022-11-14T20:58:19.749Z,101389.44
2022-11-14T21:01:06.186Z,101393.66
2022-11-14T21:03:54.234Z,101383.50
2022-11-14T21:06:40.904Z,101377.13
2022-11-14T21:09:27.451Z,101378.66
2022-11-14T21:12:13.647Z,101375.16
2022-11-14T21:15:00.033Z,101366.78
2022-11-14T21:17:46.484Z,101370.75
2022-11-14T21:20:34.160Z,101377.81
2022-11-14T21:23:20.558Z,101375.22
2022-11-14T21:26:09.252Z,101368.75
2022-11-14T21:28:57.673Z,101368.66
2022-11-14T21:31:45.955Z,101356.25
2022-11-14T21:34:34.162Z,101363.59
2022-11-14T21:37:22.178Z,101367.34
2022-11-14T21:40:10.490Z,101368.31
2022-11-14T21:42:56.981Z,101371.53
2022-11-14T21:45:43.422Z,101357.59
2022-11-14T21:48:31.856Z,101360.22
2022-11-14T21:51:20.444Z,101365.31
2022-11-14T21:54:08.566Z,101346.63
2022-11-14T21:56:55.176Z,101349.41
2022-11-14T21:59:41.669Z,101346.94
2022-11-14T22:02:45.252Z,101348.84
2022-11-14T22:05:31.741Z,101349.97
2022-11-14T22:08:18.197Z,101348.75
2022-11-14T22:11:06.123Z,101347.03
2022-11-14T22:13:52.639Z,101346.34
2022-11-14T22:16:38.986Z,101337.97
2022-11-14T22:19:25.408Z,101335.22
2022-11-14T22:22:11.925Z,101334.25
2022-11-14T22:24:58.580Z,101338.25
2022-11-14T22:27:46.477Z,101331.28
2022-11-14T22:30:32.990Z,101336.25
2022-11-14T22:33:19.424Z,101331.28
2022-11-14T22:36:07.100Z,101334.13
2022-11-14T22:38:54.606Z,101325.38
2022-11-14T22:41:41.056Z,101330.63
2022-11-14T22:44:28.678Z,101327.88
2022-11-14T22:47:15.220Z,101332.44
2022-11-14T22:50:01.526Z,101333.56
2022-11-14T22:52:47.915Z,101325.56
2022-11-14T22:55:34.278Z,101332.25
2022-11-14T22:58:20.626Z,101333.09
2022-11-14T23:01:14.272Z,101324.91
2022-11-14T23:04:02.994Z,101327.69
2022-11-14T23:06:49.717Z,101321.94
2022-11-14T23:09:36.408Z,101322.63
2022-11-14T23:12:22.765Z,101326.16
2022-11-14T23:15:09.611Z,101324.25
2022-11-14T23:17:59.525Z,101315.47
2022-11-14T23:20:46.968Z,101316.53
2022-11-14T23:23:33.837Z,101330.81
2022-11-14T23:26:20.639Z,101317.19
2022-11-14T23:29:07.070Z,101315.19
2022-11-14T23:31:53.482Z,101313.19
2022-11-14T23:34:40.990Z,101308.25
2022-11-14T23:37:27.118Z,101305.19
2022-11-14T23:40:13.780Z,101310.81
2022-11-14T23:43:00.295Z,101301.97
2022-11-14T23:45:48.222Z,101297.09
2022-11-14T23:48:34.668Z,101294.72
2022-11-14T23:51:22.381Z,101285.75
2022-11-14T23:54:08.848Z,101286.91
2022-11-14T23:56:57.777Z,101285.78
2022-11-14T23:59:48.098Z,101285.63
